Time;durP1;ratioP1;P1;durP2;ratioP2;P2;SDS_P1;SDS_P2;PMS_P1;PMS_P2;Temp;Humidity;BMP_temperature;BMP_pressure;BME280_temperature;BME280_humidity;BME280_pressure;Samples;Min_cycle;Max_cycle;Signal;HPM_P1;HPM_P2
2021/05/25 00:01:17;;;;;;;0.1;0.1;;;;;;;;;;;;;
2021/05/25 00:03:42;;;;;;;0.2;0.2;;;;;;;;;;;;;
2021/05/25 00:06:07;;;;;;;0.2;0.2;;;;;;;;;;;;;
2021/05/25 00:08:33;;;;;;;0.5;0.3;;;;;;;;;;;;;
2021/05/25 00:10:58;;;;;;;0.1;0.1;;;;;;;;;;;;;
2021/05/25 00:13:23;;;;;;;0.4;0.4;;;;;;;;;;;;;
2021/05/25 00:15:52;;;;;;;0.3;0.2;;;;;;;;;;;;;
2021/05/25 00:18:14;;;;;;;0.8;0.3;;;;;;;;;;;;;
2021/05/25 00:20:39;;;;;;;0.5;0.4;;;;;;;;;;;;;
2021/05/25 00:23:04;;;;;;;0.4;0.2;;;;;;;;;;;;;
2021/05/25 00:25:32;;;;;;;0.3;0.3;;;;;;;;;;;;;
2021/05/25 00:27:55;;;;;;;0.6;0.3;;;;;;;;;;;;;
2021/05/25 00:30:20;;;;;;;0.3;0.3;;;;;;;;;;;;;
2021/05/25 00:32:46;;;;;;;0.5;0.4;;;;;;;;;;;;;
2021/05/25 00:35:12;;;;;;;0.5;0.2;;;;;;;;;;;;;
2021/05/25 00:37:37;;;;;;;3.3;0.5;;;;;;;;;;;;;
2021/05/25 00:40:03;;;;;;;0.4;0.2;;;;;;;;;;;;;
2021/05/25 00:42:28;;;;;;;0.4;0.4;;;;;;;;;;;;;
2021/05/25 00:44:53;;;;;;;0;0;;;;;;;;;;;;;
2021/05/25 00:47:18;;;;;;;0.1;0.1;;;;;;;;;;;;;
2021/05/25 00:49:43;;;;;;;0.2;0.2;;;;;;;;;;;;;
2021/05/25 00:52:08;;;;;;;0.1;0.1;;;;;;;;;;;;;
2021/05/25 00:54:33;;;;;;;0.2;0.2;;;;;;;;;;;;;
2021/05/25 00:57:11;;;;;;;0.1;0.1;;;;;;;;;;;;;
2021/05/25 00:59:36;;;;;;;1.3;0.4;;;;;;;;;;;;;
2021/05/25 01:02:02;;;;;;;0.6;0.3;;;;;;;;;;;;;
2021/05/25 01:04:27;;;;;;;0.3;0.2;;;;;;;;;;;;;
2021/05/25 01:06:52;;;;;;;0.4;0.3;;;;;;;;;;;;;
2021/05/25 01:09:18;;;;;;;0.1;0.1;;;;;;;;;;;;;
2021/05/25 01:11:44;;;;;;;0;0;;;;;;;;;;;;;
2021/05/25 01:14:09;;;;;;;0.3;0.3;;;;;;;;;;;;;
2021/05/25 01:16:33;;;;;;;0.3;0.2;;;;;;;;;;;;;
2021/05/25 01:18:58;;;;;;;0.2;0.2;;;;;;;;;;;;;
2021/05/25 01:21:24;;;;;;;0.1;0.1;;;;;;;;;;;;;
2021/05/25 01:23:50;;;;;;;0.1;0.1;;;;;;;;;;;;;
2021/05/25 01:26:17;;;;;;;0.3;0.1;;;;;;;;;;;;;
2021/05/25 01:28:41;;;;;;;0.5;0.2;;;;;;;;;;;;;
2021/05/25 01:31:05;;;;;;;0.4;0.1;;;;;;;;;;;;;
2021/05/25 01:33:30;;;;;;;1.5;0.4;;;;;;;;;;;;;
2021/05/25 01:35:55;;;;;;;0.1;0.1;;;;;;;;;;;;;
2021/05/25 01:38:20;;;;;;;0;0;;;;;;;;;;;;;
2021/05/25 01:40:46;;;;;;;0.1;0;;;;;;;;;;;;;
2021/05/25 01:43:11;;;;;;;0.1;0.1;;;;;;;;;;;;;
2021/05/25 01:45:38;;;;;;;0.2;0.1;;;;;;;;;;;;;
2021/05/25 01:48:03;;;;;;;0.1;0.1;;;;;;;;;;;;;
2021/05/25 01:50:30;;;;;;;0.2;0.2;;;;;;;;;;;;;
2021/05/25 01:52:56;;;;;;;0.1;0.1;;;;;;;;;;;;;
2021/05/25 01:55:20;;;;;;;0.2;0.2;;;;;;;;;;;;;
2021/05/25 01:57:45;;;;;;;0.1;0.1;;;;;;;;;;;;;
2021/05/25 02:00:11;;;;;;;0.5;0.2;;;;;;;;;;;;;
2021/05/25 02:02:36;;;;;;;0.1;0.1;;;;;;;;;;;;;
2021/05/25 02:05:02;;;;;;;0.1;0.1;;;;;;;;;;;;;
2021/05/25 02:07:27;;;;;;;0.5;0.2;;;;;;;;;;;;;
2021/05/25 02:09:52;;;;;;;0.9;0.2;;;;;;;;;;;;;
2021/05/25 02:12:18;;;;;;;2.8;0.1;;;;;;;;;;;;;
2021/05/25 02:14:43;;;;;;;0.1;0.1;;;;;;;;;;;;;
2021/05/25 02:17:09;;;;;;;0;0;;;;;;;;;;;;;
2021/05/25 02:19:34;;;;;;;1.9;0.2;;;;;;;;;;;;;
2021/05/25 02:22:01;;;;;;;0.1;0.1;;;;;;;;;;;;;
2021/05/25 02:24:26;;;;;;;0.2;0.2;;;;;;;;;;;;;
2021/05/25 02:26:51;;;;;;;0.1;0;;;;;;;;;;;;;
2021/05/25 02:29:16;;;;;;;0.2;0.1;;;;;;;;;;;;;
2021/05/25 02:31:42;;;;;;;0;0;;;;;;;;;;;;;
2021/05/25 02:34:08;;;;;;;0.1;0.1;;;;;;;;;;;;;
2021/05/25 02:36:33;;;;;;;0.2;0.1;;;;;;;;;;;;;
2021/05/25 02:38:58;;;;;;;0.3;0.2;;;;;;;;;;;;;
2021/05/25 02:41:23;;;;;;;0.2;0.1;;;;;;;;;;;;;
2021/05/25 02:43:49;;;;;;;0.1;0.1;;;;;;;;;;;;;
2021/05/25 02:46:13;;;;;;;0.1;0.1;;;;;;;;;;;;;
2021/05/25 02:48:41;;;;;;;0;0;;;;;;;;;;;;;
2021/05/25 02:51:06;;;;;;;0;0;;;;;;;;;;;;;
2021/05/25 02:53:32;;;;;;;0.1;0.1;;;;;;;;;;;;;
2021/05/25 02:55:57;;;;;;;0.1;0.1;;;;;;;;;;;;;
2021/05/25 02:58:22;;;;;;;0.1;0.1;;;;;;;;;;;;;
2021/05/25 03:00:47;;;;;;;0;0;;;;;;;;;;;;;
2021/05/25 03:03:13;;;;;;;0.1;0.1;;;;;;;;;;;;;
2021/05/25 03:05:38;;;;;;;0.1;0.1;;;;;;;;;;;;;
2021/05/25 03:08:03;;;;;;;0.2;0.1;;;;;;;;;;;;;
2021/05/25 03:10:30;;;;;;;0.2;0.1;;;;;;;;;;;;;
2021/05/25 03:12:55;;;;;;;0;0;;;;;;;;;;;;;
2021/05/25 03:15:20;;;;;;;0.1;0.1;;;;;;;;;;;;;
2021/05/25 03:17:45;;;;;;;0;0;;;;;;;;;;;;;
2021/05/25 03:20:11;;;;;;;0.1;0.1;;;;;;;;;;;;;
2021/05/25 03:22:36;;;;;;;0.6;0.2;;;;;;;;;;;;;
2021/05/25 03:25:02;;;;;;;0.2;0.1;;;;;;;;;;;;;
2021/05/25 03:27:27;;;;;;;0;0;;;;;;;;;;;;;
2021/05/25 03:29:53;;;;;;;0.2;0.1;;;;;;;;;;;;;
2021/05/25 03:32:18;;;;;;;0.5;0.3;;;;;;;;;;;;;
2021/05/25 03:34:43;;;;;;;0;0;;;;;;;;;;;;;
2021/05/25 03:37:09;;;;;;;0.4;0.4;;;;;;;;;;;;;
2021/05/25 03:39:34;;;;;;;0.1;0.1;;;;;;;;;;;;;
2021/05/25 03:42:00;;;;;;;0.3;0.2;;;;;;;;;;;;;
2021/05/25 03:44:24;;;;;;;0.1;0.1;;;;;;;;;;;;;
2021/05/25 03:46:50;;;;;;;0.1;0.1;;;;;;;;;;;;;
2021/05/25 03:49:15;;;;;;;0.2;0.1;;;;;;;;;;;;;
2021/05/25 03:51:41;;;;;;;1.2;0.2;;;;;;;;;;;;;
2021/05/25 03:54:10;;;;;;;0.1;0.1;;;;;;;;;;;;;
2021/05/25 03:56:34;;;;;;;0;0;;;;;;;;;;;;;
2021/05/25 03:58:57;;;;;;;0.1;0.1;;;;;;;;;;;;;
2021/05/25 04:02:30;;;;;;;0.2;0.2;;;;;;;9.57;85.66992;938.1587;;;;
2021/05/25 04:04:55;;;;;;;0.1;0;;;;;;;9.55;86.28125;938.0964;;;;
2021/05/25 04:07:20;;;;;;;0.1;0.1;;;;;;;9.67;85.55078;938.1124;;;;
2021/05/25 04:09:45;;;;;;;0.1;0.1;;;;;;;9.63;85.31445;938.0627;;;;
2021/05/25 04:12:10;;;;;;;0.1;0.1;;;;;;;9.57;85.00781;938.072;;;;
2021/05/25 04:14:35;;;;;;;0.1;0.1;;;;;;;9.41;85.83105;938.149;;;;
2021/05/25 04:17:13;;;;;;;0.2;0.1;;;;;;;9.36;86.50391;938.1294;;;;
2021/05/25 04:19:41;;;;;;;0.4;0.1;;;;;;;9.54;85.69727;938.2186;;;;
2021/05/25 04:22:46;;;;;;;1;0.2;;;;;;;9.58;85.62598;938.1707;;;;
2021/05/25 04:25:15;;;;;;;0.4;0.3;;;;;;;9.58;86.44629;938.1691;;;;
2021/05/25 04:27:40;;;;;;;0;0;;;;;;;9.7;85.98926;938.1875;;;;
2021/05/25 04:30:05;;;;;;;0.1;0.1;;;;;;;9.74;85.77051;938.2271;;;;
2021/05/25 04:32:31;;;;;;;0.1;0.1;;;;;;;9.66;85.75586;938.2316;;;;
2021/05/25 04:34:56;;;;;;;0.1;0.1;;;;;;;9.75;85.7041;938.2494;;;;
2021/05/25 04:37:21;;;;;;;0.1;0.1;;;;;;;9.63;85.49805;938.2972;;;;
2021/05/25 04:39:49;;;;;;;0.2;0.2;;;;;;;9.74;85.9873;938.3057;;;;
2021/05/25 04:42:14;;;;;;;0.2;0.2;;;;;;;9.7;86.35645;938.2401;;;;
2021/05/25 04:48:08;;;;;;;0.1;0.1;;;;;;;9.7;85.80762;938.3513;;;;
2021/05/25 04:50:34;;;;;;;1.7;0.7;;;;;;;9.62;85.2666;938.3797;;;;
2021/05/25 04:52:59;;;;;;;2.3;0.2;;;;;;;9.64;84.9873;938.3759;;;;
2021/05/25 04:55:25;;;;;;;0.1;0.1;;;;;;;9.74;85.24609;938.3677;;;;
2021/05/25 04:57:50;;;;;;;0.2;0.2;;;;;;;9.74;85.50879;938.4314;;;;
2021/05/25 05:00:16;;;;;;;0.5;0.4;;;;;;;9.72;84.82129;938.4486;;;;
2021/05/25 05:02:41;;;;;;;0.2;0.2;;;;;;;9.79;84.90332;938.4455;;;;
2021/05/25 05:05:10;;;;;;;0.2;0.2;;;;;;;9.87;84.55469;938.4166;;;;
2021/05/25 05:07:35;;;;;;;0.2;0.2;;;;;;;9.91;84.87012;938.3972;;;;
2021/05/25 05:10:01;;;;;;;0.2;0.2;;;;;;;9.95;84.13574;938.4476;;;;
2021/05/25 05:12:26;;;;;;;4.5;2.3;;;;;;;9.91;85.75879;938.3948;;;;
2021/05/25 05:14:51;;;;;;;2.7;1.4;;;;;;;9.95;85.94922;938.3396;;;;
2021/05/25 05:17:17;;;;;;;0.3;0.2;;;;;;;9.8;85.1543;938.4503;;;;
2021/05/25 05:19:45;;;;;;;2.7;0.4;;;;;;;9.76;85.43262;938.5159;;;;
2021/05/25 05:22:10;;;;;;;3;0.5;;;;;;;9.88;84.75977;938.5256;;;;
2021/05/25 05:24:36;;;;;;;0.6;0.4;;;;;;;9.91;84.57324;938.503;;;;
2021/05/25 05:27:01;;;;;;;0.2;0.2;;;;;;;9.99;85.98047;938.5357;;;;
2021/05/25 05:29:26;;;;;;;0.6;0.6;;;;;;;10.05;85.5127;938.5056;;;;
2021/05/25 05:32:11;;;;;;;0.2;0.2;;;;;;;10.09;81.90527;938.5316;;;;
2021/05/25 05:34:38;;;;;;;0.5;0.3;;;;;;;10.22;82.2832;938.6362;;;;
2021/05/25 05:37:04;;;;;;;0.8;0.4;;;;;;;10.34;82.92188;938.601;;;;
2021/05/25 05:39:29;;;;;;;0.3;0.3;;;;;;;10.44;82.01758;938.616;;;;
2021/05/25 05:41:55;;;;;;;0.2;0.2;;;;;;;10.55;81.69629;938.6305;;;;
2021/05/25 05:44:21;;;;;;;0.3;0.3;;;;;;;10.58;82.0459;938.5991;;;;
2021/05/25 05:47:39;;;;;;;0.4;0.4;;;;;;;10.54;82.97266;938.6544;;;;
2021/05/25 05:50:10;;;;;;;0.2;0.2;;;;;;;10.74;80.52148;938.6964;;;;
2021/05/25 05:52:35;;;;;;;1.3;0.4;;;;;;;10.8;80.06445;938.7567;;;;
2021/05/25 05:55:00;;;;;;;0.2;0.2;;;;;;;10.77;81.11035;938.7914;;;;
2021/05/25 05:57:25;;;;;;;0.5;0.2;;;;;;;10.75;79.66797;938.7722;;;;
2021/05/25 05:59:51;;;;;;;0.4;0.3;;;;;;;10.79;79.71875;938.7542;;;;
2021/05/25 06:02:16;;;;;;;0.4;0.4;;;;;;;10.93;80.15625;938.8449;;;;
2021/05/25 06:04:41;;;;;;;0.3;0.2;;;;;;;10.97;80.2793;938.8198;;;;
2021/05/25 06:07:06;;;;;;;0.1;0.1;;;;;;;10.94;79.73535;938.8244;;;;
2021/05/25 06:10:31;;;;;;;1.9;0.2;;;;;;;11.01;80.27441;938.8441;;;;
2021/05/25 06:12:56;;;;;;;0.3;0.3;;;;;;;11.02;79.40723;938.8125;;;;
2021/05/25 06:15:22;;;;;;;0.2;0.2;;;;;;;11.16;80.49707;938.8176;;;;
2021/05/25 06:17:49;;;;;;;0.2;0.2;;;;;;;11.33;79.39453;938.8734;;;;
2021/05/25 06:20:14;;;;;;;0.1;0.1;;;;;;;11.5;78.82031;938.9148;;;;
2021/05/25 06:22:39;;;;;;;0.2;0.2;;;;;;;11.3;78.31445;938.8716;;;;
2021/05/25 06:25:06;;;;;;;0.1;0.1;;;;;;;11.41;78.74609;938.8389;;;;
2021/05/25 06:27:30;;;;;;;0.3;0.3;;;;;;;11.48;77.88965;938.8987;;;;
2021/05/25 06:29:55;;;;;;;0.3;0.3;;;;;;;11.61;77.64941;938.8732;;;;
2021/05/25 06:32:20;;;;;;;0.2;0.2;;;;;;;11.72;77.39355;938.8948;;;;
2021/05/25 06:34:45;;;;;;;0.3;0.3;;;;;;;11.58;77.1748;938.7965;;;;
2021/05/25 06:37:10;;;;;;;0.1;0.1;;;;;;;11.79;75.23145;938.8861;;;;
2021/05/25 06:39:36;;;;;;;0.2;0.1;;;;;;;11.94;74.83203;938.8521;;;;
2021/05/25 06:42:01;;;;;;;0.3;0.2;;;;;;;12.06;73.23828;938.7955;;;;
2021/05/25 06:44:31;;;;;;;0.9;0.5;;;;;;;12.27;73.10156;938.7503;;;;
2021/05/25 06:46:53;;;;;;;0.3;0.3;;;;;;;12.22;74.41016;938.8354;;;;
2021/05/25 06:49:19;;;;;;;0.4;0.3;;;;;;;12.37;74.37988;938.7986;;;;
2021/05/25 06:51:44;;;;;;;0;0;;;;;;;12.53;73.59277;938.8113;;;;
2021/05/25 06:54:11;;;;;;;0.3;0.2;;;;;;;12.47;73.16992;938.8254;;;;
2021/05/25 06:56:34;;;;;;;0.3;0.2;;;;;;;12.72;71.46777;938.9239;;;;
2021/05/25 06:59:01;;;;;;;0.3;0.2;;;;;;;12.67;69.79688;938.7983;;;;
2021/05/25 07:01:26;;;;;;;0.2;0.1;;;;;;;12.69;72.7832;938.8127;;;;
2021/05/25 07:03:53;;;;;;;0;0;;;;;;;12.79;72.45508;938.8121;;;;
2021/05/25 07:06:17;;;;;;;0.1;0.1;;;;;;;12.88;71.55078;938.771;;;;
2021/05/25 07:08:42;;;;;;;0.4;0.2;;;;;;;13.25;70.61328;938.8505;;;;
2021/05/25 07:11:07;;;;;;;0.1;0.1;;;;;;;13.49;69.08789;938.8162;;;;
2021/05/25 07:13:32;;;;;;;0.1;0.1;;;;;;;13.7;69.60547;938.8596;;;;
2021/05/25 07:16:01;;;;;;;0.2;0.2;;;;;;;13.54;69.69434;938.8194;;;;
2021/05/25 07:18:26;;;;;;;0.7;0.1;;;;;;;13.69;70.91504;938.8716;;;;
2021/05/25 07:20:51;;;;;;;0;0;;;;;;;13.83;70.55762;938.8811;;;;
2021/05/25 07:23:16;;;;;;;0.2;0.2;;;;;;;14.08;68.75488;938.8816;;;;
2021/05/25 07:25:41;;;;;;;0;0;;;;;;;13.91;67.2793;938.9537;;;;
2021/05/25 07:28:06;;;;;;;0.1;0.1;;;;;;;13.89;65.98828;938.9924;;;;
2021/05/25 07:30:33;;;;;;;0.1;0.1;;;;;;;13.37;66.75977;938.9464;;;;
2021/05/25 07:32:58;;;;;;;0.2;0.2;;;;;;;13.82;66.50684;938.9741;;;;
2021/05/25 07:35:23;;;;;;;0.4;0.2;;;;;;;14.18;64.71973;939.019;;;;
2021/05/25 07:37:48;;;;;;;1.5;0.5;;;;;;;14.2;64.88281;939.0453;;;;
2021/05/25 07:40:17;;;;;;;0;0;;;;;;;14.12;63.87109;939.0457;;;;
2021/05/25 07:42:42;;;;;;;0.2;0.2;;;;;;;13.96;65.6084;939.017;;;;
2021/05/25 07:45:08;;;;;;;0.9;0.2;;;;;;;14.14;63.87207;939.0151;;;;
2021/05/25 07:47:33;;;;;;;0;0;;;;;;;14.24;62.22852;939.0912;;;;
2021/05/25 07:50:12;;;;;;;0.6;0.3;;;;;;;13.95;64.06348;939.0754;;;;
2021/05/25 07:52:24;;;;;;;0.3;0.2;;;;;;;13.83;62.90723;939.0628;;;;
2021/05/25 07:54:49;;;;;;;0.3;0.2;;;;;;;13.94;64.67188;939.0642;;;;
2021/05/25 07:57:14;;;;;;;0.9;0.5;;;;;;;14.05;65.59668;939.1747;;;;
2021/05/25 07:59:40;;;;;;;0.1;0;;;;;;;14.12;63.76758;939.1961;;;;
2021/05/25 08:02:06;;;;;;;0;0;;;;;;;14.18;62.72754;939.1696;;;;
2021/05/25 08:04:32;;;;;;;0.1;0.1;;;;;;;14.03;63.99414;939.2292;;;;
2021/05/25 08:06:57;;;;;;;0.1;0.1;;;;;;;13.88;63.29492;939.2653;;;;
2021/05/25 08:09:22;;;;;;;0.1;0.1;;;;;;;13.67;66.91992;939.3253;;;;
2021/05/25 08:11:47;;;;;;;0.6;0.4;;;;;;;13.3;65.9209;939.3175;;;;
2021/05/25 08:14:12;;;;;;;1.1;0.5;;;;;;;13.24;69.83105;939.475;;;;
2021/05/25 08:16:41;;;;;;;0.2;0.2;;;;;;;12.85;65.03906;939.4039;;;;
2021/05/25 08:19:10;;;;;;;0.5;0.4;;;;;;;12.61;69.32715;939.4984;;;;
2021/05/25 08:21:29;;;;;;;1;0.6;;;;;;;12.62;69.03027;939.4302;;;;
2021/05/25 08:23:55;;;;;;;0.4;0.3;;;;;;;12.93;67.24219;939.528;;;;
2021/05/25 08:26:24;;;;;;;0.8;0.5;;;;;;;13.08;68.12793;939.551;;;;
2021/05/25 08:28:46;;;;;;;0.5;0.3;;;;;;;12.91;65.98828;939.5367;;;;
2021/05/25 08:31:12;;;;;;;0.3;0.2;;;;;;;12.62;63.45508;939.5228;;;;
2021/05/25 08:33:38;;;;;;;1.2;0.3;;;;;;;12.7;67.5752;939.5598;;;;
2021/05/25 08:36:05;;;;;;;0.5;0.2;;;;;;;12.79;64.52441;939.473;;;;
2021/05/25 08:38:30;;;;;;;0.9;0.3;;;;;;;12.97;62.48438;939.6336;;;;
2021/05/25 08:40:55;;;;;;;0.8;0.5;;;;;;;12.63;65.47656;939.5276;;;;
2021/05/25 08:43:20;;;;;;;0.2;0.1;;;;;;;12.55;57.51367;939.658;;;;
2021/05/25 08:45:47;;;;;;;4;0.4;;;;;;;12.52;58.84082;939.6139;;;;
2021/05/25 08:48:12;;;;;;;0.7;0.3;;;;;;;12.1;56.01172;939.5683;;;;
2021/05/25 08:50:37;;;;;;;0.9;0.6;;;;;;;12.14;62.35352;939.6149;;;;
2021/05/25 08:53:03;;;;;;;0.1;0.1;;;;;;;11.82;60.12012;939.5655;;;;
2021/05/25 08:55:32;;;;;;;0.3;0.3;;;;;;;11.74;56.95996;939.6225;;;;
2021/05/25 08:57:57;;;;;;;0.5;0.3;;;;;;;11.42;55.7627;939.6262;;;;
2021/05/25 09:00:25;;;;;;;0.3;0.1;;;;;;;11.77;62.23145;939.6077;;;;
2021/05/25 09:02:49;;;;;;;0.3;0.3;;;;;;;12.15;62.67578;939.6508;;;;
2021/05/25 09:05:15;;;;;;;1.1;0.3;;;;;;;12.54;56.04492;939.5589;;;;
2021/05/25 09:07:40;;;;;;;0.3;0.2;;;;;;;13.29;54.86621;939.7037;;;;
2021/05/25 09:10:05;;;;;;;2.1;0.4;;;;;;;13.62;56.03516;939.695;;;;
2021/05/25 09:12:30;;;;;;;1.2;0.3;;;;;;;14.61;53.42969;939.7322;;;;
2021/05/25 09:14:55;;;;;;;0.1;0.1;;;;;;;15.11;49.28027;939.7059;;;;
2021/05/25 09:17:23;;;;;;;0.6;0.4;;;;;;;14.7;49.82227;939.6905;;;;
2021/05/25 09:19:47;;;;;;;2.6;0.3;;;;;;;14.91;51.40332;939.705;;;;
2021/05/25 09:22:12;;;;;;;3;0.2;;;;;;;15.31;48.06738;939.6528;;;;
2021/05/25 09:24:37;;;;;;;0.2;0.2;;;;;;;15.79;43.77539;939.5698;;;;
2021/05/25 09:27:02;;;;;;;0.8;0.3;;;;;;;15.76;47.57324;939.5244;;;;
2021/05/25 09:29:28;;;;;;;0.1;0.1;;;;;;;16.18;49.79395;939.5797;;;;
2021/05/25 09:31:54;;;;;;;1.1;0.3;;;;;;;16.23;43.63379;939.5762;;;;
2021/05/25 09:34:20;;;;;;;0.5;0.4;;;;;;;16.55;41.60547;939.5739;;;;
2021/05/25 09:36:44;;;;;;;0.2;0.2;;;;;;;16.39;47.12207;939.5109;;;;
2021/05/25 09:39:11;;;;;;;0.2;0.2;;;;;;;17.25;39.5957;939.5559;;;;
2021/05/25 09:41:36;;;;;;;0.5;0.3;;;;;;;17.05;40.71484;939.5778;;;;
2021/05/25 09:44:01;;;;;;;0.1;0.1;;;;;;;16.83;42.70898;939.5706;;;;
2021/05/25 09:46:26;;;;;;;5.5;0.5;;;;;;;16.98;42.3418;939.5446;;;;
2021/05/25 09:48:51;;;;;;;0.1;0.1;;;;;;;17.52;43.45996;939.5611;;;;
2021/05/25 09:51:18;;;;;;;0;0;;;;;;;16.95;38.44531;939.6133;;;;
2021/05/25 09:53:43;;;;;;;0.3;0.2;;;;;;;17.14;39.49414;939.5499;;;;
2021/05/25 09:56:08;;;;;;;1;0.4;;;;;;;17.34;39.67383;939.5296;;;;
2021/05/25 09:58:34;;;;;;;0.2;0.2;;;;;;;17.18;38.74414;939.5292;;;;
2021/05/25 10:00:59;;;;;;;0.1;0.1;;;;;;;17.66;35.58301;939.4127;;;;
2021/05/25 10:03:26;;;;;;;0.4;0.3;;;;;;;17.14;36.9082;939.348;;;;
2021/05/25 10:05:52;;;;;;;0.5;0.3;;;;;;;17.35;38.71289;939.3959;;;;
2021/05/25 10:08:17;;;;;;;0.3;0.2;;;;;;;17.4;40.67676;939.351;;;;
2021/05/25 10:10:43;;;;;;;0.1;0.1;;;;;;;17.31;40.03027;939.2597;;;;
2021/05/25 10:13:08;;;;;;;0.6;0.2;;;;;;;17.84;36.94434;939.2847;;;;
2021/05/25 10:15:38;;;;;;;1.1;0.2;;;;;;;17.33;32.83105;939.1844;;;;
2021/05/25 10:20:28;;;;;;;0.8;0.3;;;;;;;17.25;33.96191;939.2042;;;;
2021/05/25 10:22:53;;;;;;;0.1;0.1;;;;;;;16.57;32.57715;939.0607;;;;
2021/05/25 10:25:18;;;;;;;0.2;0.2;;;;;;;16.08;37.14355;938.9412;;;;
2021/05/25 10:27:45;;;;;;;0.1;0.1;;;;;;;15.9;34.57324;939.1701;;;;
2021/05/25 10:30:34;;;;;;;0.2;0.2;;;;;;;15.57;33.21875;939.2781;;;;
2021/05/25 10:33:00;;;;;;;0.2;0.1;;;;;;;15.27;38.13672;939.3386;;;;
2021/05/25 10:35:25;;;;;;;0.1;0.1;;;;;;;15.4;38.15918;939.304;;;;
2021/05/25 10:37:50;;;;;;;0.9;0.3;;;;;;;15.35;36.9082;939.2369;;;;
2021/05/25 10:40:20;;;;;;;0.1;0.1;;;;;;;15.58;34.83594;939.2226;;;;
2021/05/25 10:42:41;;;;;;;0;0;;;;;;;15.58;35.65625;939.0925;;;;
2021/05/25 10:45:06;;;;;;;0.6;0.4;;;;;;;15.25;34.08301;939.3219;;;;
2021/05/25 10:47:34;;;;;;;0.4;0.3;;;;;;;15.6;35.69336;939.0983;;;;
2021/05/25 10:49:56;;;;;;;0.1;0.1;;;;;;;15.64;36.42383;939.1272;;;;
2021/05/25 10:52:28;;;;;;;0;0;;;;;;;15.99;32.88086;939.0888;;;;
2021/05/25 10:54:55;;;;;;;0.1;0.1;;;;;;;16.41;33.91992;939.1242;;;;
2021/05/25 10:57:20;;;;;;;0.5;0.4;;;;;;;16.31;33.06738;939.2049;;;;
2021/05/25 10:59:45;;;;;;;0;0;;;;;;;16.37;36.41504;939.2484;;;;
2021/05/25 11:02:11;;;;;;;0.6;0.2;;;;;;;16.55;34.85645;939.2257;;;;
2021/05/25 11:04:37;;;;;;;0.1;0.1;;;;;;;16.48;35.66016;939.4091;;;;
2021/05/25 11:07:03;;;;;;;0.6;0.3;;;;;;;15.9;34.06543;939.6615;;;;
2021/05/25 11:09:28;;;;;;;0.2;0.2;;;;;;;15.13;37.65137;939.7186;;;;
2021/05/25 11:11:53;;;;;;;0.2;0.2;;;;;;;13.78;45.8291;940.2472;;;;
2021/05/25 11:14:18;;;;;;;0;0;;;;;;;12.87;50.60059;940.3406;;;;
2021/05/25 11:16:43;;;;;;;0;0;;;;;;;12.43;51.2373;940.3531;;;;
2021/05/25 11:19:12;;;;;;;0.6;0.3;;;;;;;12.52;48.32324;940.3552;;;;
2021/05/25 11:21:38;;;;;;;0.1;0.1;;;;;;;13.07;46.59277;940.4191;;;;
2021/05/25 11:24:00;;;;;;;0.2;0.1;;;;;;;13.48;45.5791;940.4026;;;;
2021/05/25 11:26:25;;;;;;;0.1;0.1;;;;;;;13.97;48.24316;940.3611;;;;
2021/05/25 11:28:50;;;;;;;0.5;0.2;;;;;;;14.36;47.28418;940.3205;;;;
2021/05/25 11:31:16;;;;;;;0.1;0.1;;;;;;;14.06;46.52637;940.4166;;;;
2021/05/25 11:33:41;;;;;;;0.4;0.4;;;;;;;14.39;48.76172;940.2275;;;;
2021/05/25 11:36:07;;;;;;;0.5;0.2;;;;;;;14.66;44.90723;940.1106;;;;
2021/05/25 11:38:32;;;;;;;0;0;;;;;;;15.15;46.53809;940.1597;;;;
2021/05/25 11:40:58;;;;;;;0.1;0.1;;;;;;;15.22;42.04492;940.0151;;;;
2021/05/25 11:43:23;;;;;;;0.8;0.3;;;;;;;15.05;42.7207;940.0815;;;;
2021/05/25 11:45:48;;;;;;;0.1;0.1;;;;;;;15.28;41.19531;940.128;;;;
2021/05/25 11:48:14;;;;;;;0.2;0.1;;;;;;;15.42;43.70313;940.087;;;;
2021/05/25 11:50:39;;;;;;;0.1;0.1;;;;;;;15.67;37.75586;940.0308;;;;
2021/05/25 11:53:04;;;;;;;0.1;0.1;;;;;;;15.36;38.12207;940.0745;;;;
2021/05/25 11:55:29;;;;;;;0.3;0.1;;;;;;;15.2;38.76465;940.0945;;;;
2021/05/25 11:57:56;;;;;;;0.2;0.2;;;;;;;14.93;38.64941;940.1195;;;;
2021/05/25 12:00:21;;;;;;;0.4;0.3;;;;;;;15.04;39.1543;939.8947;;;;
2021/05/25 12:02:46;;;;;;;0.1;0.1;;;;;;;15.17;40.5752;939.9719;;;;
2021/05/25 12:05:11;;;;;;;0.1;0.1;;;;;;;14.94;37.88867;939.9542;;;;
2021/05/25 12:07:36;;;;;;;0.2;0.1;;;;;;;15.5;42.10645;939.9559;;;;
2021/05/25 12:10:03;;;;;;;0.2;0.2;;;;;;;16.04;37.46289;939.9064;;;;
2021/05/25 12:12:29;;;;;;;0.3;0;;;;;;;16.33;41.29492;939.8983;;;;
2021/05/25 12:14:53;;;;;;;0.1;0.1;;;;;;;16.63;36.95801;939.8434;;;;
2021/05/25 12:17:19;;;;;;;0.4;0.2;;;;;;;16.49;35.09375;939.8575;;;;
2021/05/25 12:19:44;;;;;;;1.7;0.1;;;;;;;16.83;34.51953;939.9744;;;;
2021/05/25 12:22:09;;;;;;;0.2;0.1;;;;;;;16.81;34.06641;939.9478;;;;
2021/05/25 12:24:37;;;;;;;0.1;0.1;;;;;;;16.83;36.90527;939.8699;;;;
2021/05/25 12:27:00;;;;;;;0.1;0;;;;;;;16.99;33.65039;939.826;;;;
2021/05/25 12:29:26;;;;;;;0.1;0.1;;;;;;;17.14;35.18066;939.8791;;;;
2021/05/25 12:31:50;;;;;;;0.3;0.2;;;;;;;16.88;30.66602;939.8491;;;;
2021/05/25 12:34:15;;;;;;;0.2;0.1;;;;;;;16.67;30.80176;939.7162;;;;
2021/05/25 12:36:43;;;;;;;0;0;;;;;;;16.49;30.75391;939.8044;;;;
2021/05/25 12:39:06;;;;;;;1.5;0.2;;;;;;;16.51;32.5957;939.8147;;;;
2021/05/25 12:41:31;;;;;;;0.1;0.1;;;;;;;16.56;30.62012;939.7466;;;;
2021/05/25 12:43:56;;;;;;;0.2;0.2;;;;;;;16.96;33.54395;939.7483;;;;
2021/05/25 12:46:21;;;;;;;0;0;;;;;;;17.12;28.91992;939.8166;;;;
2021/05/25 12:48:46;;;;;;;0.4;0.2;;;;;;;16.75;32.625;939.7177;;;;
2021/05/25 12:51:12;;;;;;;1.4;0.3;;;;;;;16.73;32.14844;939.5933;;;;
2021/05/25 12:53:38;;;;;;;0.1;0.1;;;;;;;16.76;30.77246;939.4055;;;;
2021/05/25 12:56:04;;;;;;;0.2;0.2;;;;;;;16.67;27.80273;939.594;;;;
2021/05/25 12:58:30;;;;;;;0.7;0.1;;;;;;;16.87;28.45215;939.6264;;;;
2021/05/25 13:00:55;;;;;;;1.2;0.5;;;;;;;16.96;30.9375;939.6172;;;;
2021/05/25 13:03:20;;;;;;;0.2;0.1;;;;;;;17.07;30.31934;939.5903;;;;
2021/05/25 13:05:45;;;;;;;0.3;0.2;;;;;;;17.32;28.14453;939.5541;;;;
2021/05/25 13:08:14;;;;;;;0.1;0.1;;;;;;;17.01;30.22266;939.541;;;;
2021/05/25 13:10:38;;;;;;;2.5;0.4;;;;;;;16.94;28.66504;939.5258;;;;
2021/05/25 13:13:02;;;;;;;0.4;0.2;;;;;;;16.83;28.53125;939.5271;;;;
2021/05/25 13:15:33;;;;;;;0.1;0.1;;;;;;;16.91;28.50098;939.5712;;;;
2021/05/25 13:17:58;;;;;;;0.1;0.1;;;;;;;16.92;28.69922;939.6217;;;;
2021/05/25 13:20:25;;;;;;;0.7;0.3;;;;;;;16.84;27.99805;939.5424;;;;
2021/05/25 13:22:48;;;;;;;1.2;0.2;;;;;;;17.12;28.8623;939.5301;;;;
2021/05/25 13:25:14;;;;;;;0.7;0.3;;;;;;;16.99;28.98242;939.5403;;;;
2021/05/25 13:27:38;;;;;;;0.2;0.2;;;;;;;17.05;28.41797;939.5133;;;;
2021/05/25 13:30:07;;;;;;;0;0;;;;;;;16.65;28.68066;939.5143;;;;
2021/05/25 13:32:31;;;;;;;0.5;0.3;;;;;;;16.45;30.48438;939.5269;;;;
2021/05/25 13:34:56;;;;;;;0.3;0.1;;;;;;;16.32;29.3418;939.5021;;;;
2021/05/25 13:37:21;;;;;;;0.1;0.1;;;;;;;16.21;29.93555;939.4548;;;;
2021/05/25 13:39:49;;;;;;;0;0;;;;;;;16.2;29.73926;939.4412;;;;
2021/05/25 13:42:12;;;;;;;0.2;0.2;;;;;;;16.38;29.33496;939.5062;;;;
2021/05/25 13:44:39;;;;;;;0.9;0.3;;;;;;;16.29;29.90625;939.4783;;;;
2021/05/25 13:47:04;;;;;;;0.1;0.1;;;;;;;16.11;29.90625;939.4381;;;;
2021/05/25 13:49:29;;;;;;;0.1;0.1;;;;;;;16.16;30.32617;939.375;;;;
2021/05/25 13:51:54;;;;;;;0.3;0.2;;;;;;;16.16;29.96777;939.3372;;;;
2021/05/25 13:54:19;;;;;;;0.9;0.2;;;;;;;16.25;28.90918;939.3928;;;;
2021/05/25 13:56:46;;;;;;;0.1;0.1;;;;;;;16.45;29.26953;939.3796;;;;
2021/05/25 13:59:13;;;;;;;0.6;0.2;;;;;;;16.66;29.46875;939.4563;;;;
2021/05/25 14:01:34;;;;;;;1.5;0.3;;;;;;;16.54;27.22656;939.2814;;;;
2021/05/25 14:04:01;;;;;;;0.3;0.3;;;;;;;16.32;31.33203;939.2877;;;;
2021/05/25 14:06:24;;;;;;;0.1;0.1;;;;;;;16.63;32.89453;939.2676;;;;
2021/05/25 14:08:50;;;;;;;0.8;0.1;;;;;;;16.6;28.60742;939.2983;;;;
2021/05/25 14:11:15;;;;;;;1.2;0.2;;;;;;;16.68;31.14941;939.3687;;;;
2021/05/25 14:13:41;;;;;;;0.5;0.3;;;;;;;16.76;28.3877;939.3379;;;;
2021/05/25 14:16:07;;;;;;;0.1;0.1;;;;;;;16.84;29.28418;939.4047;;;;
2021/05/25 14:18:34;;;;;;;0.6;0.3;;;;;;;17.07;27.9668;939.4342;;;;
2021/05/25 14:20:59;;;;;;;0;0;;;;;;;17.04;30.30566;939.4121;;;;
2021/05/25 14:23:24;;;;;;;0.1;0.1;;;;;;;17.3;28.82813;939.3604;;;;
2021/05/25 14:25:49;;;;;;;0.2;0.1;;;;;;;17.25;27.08496;939.2872;;;;
2021/05/25 14:28:15;;;;;;;0;0;;;;;;;17.09;28.6875;939.5159;;;;
2021/05/25 14:30:40;;;;;;;2.2;0.2;;;;;;;16.9;27.55078;939.1531;;;;
2021/05/25 14:33:07;;;;;;;0.5;0.2;;;;;;;17.22;28.38184;939.1674;;;;
2021/05/25 14:35:32;;;;;;;0.5;0.3;;;;;;;17.32;27.69336;939.344;;;;
2021/05/25 14:37:59;;;;;;;0.2;0.2;;;;;;;17.37;28.1123;939.2186;;;;
2021/05/25 14:40:24;;;;;;;0.4;0.3;;;;;;;17.35;28.72656;939.2213;;;;
2021/05/25 14:42:53;;;;;;;0.1;0.1;;;;;;;17.25;28.00098;939.3097;;;;
2021/05/25 14:45:15;;;;;;;0.4;0.2;;;;;;;17.18;28.75;939.3458;;;;
2021/05/25 14:47:41;;;;;;;0.3;0.2;;;;;;;17.21;28.99609;939.0637;;;;
2021/05/25 14:50:23;;;;;;;0.3;0.1;;;;;;;17.17;28.84277;939.337;;;;
2021/05/25 14:52:31;;;;;;;0.1;0.1;;;;;;;16.84;29.41113;939.2503;;;;
2021/05/25 14:55:00;;;;;;;0.1;0.1;;;;;;;16.73;28.79004;939.2266;;;;
2021/05/25 14:57:23;;;;;;;0.1;0.1;;;;;;;16.57;30.34277;939.2239;;;;
2021/05/25 14:59:48;;;;;;;0.2;0.2;;;;;;;16.53;29.7959;939.1938;;;;
2021/05/25 15:02:15;;;;;;;0.6;0.3;;;;;;;16.61;29.15332;939.1454;;;;
2021/05/25 15:04:42;;;;;;;0.1;0.1;;;;;;;16.68;28.3125;939.1074;;;;
2021/05/25 15:07:07;;;;;;;0.4;0.3;;;;;;;16.71;27.63086;939.2308;;;;
2021/05/25 15:09:31;;;;;;;0;0;;;;;;;16.74;28.17773;939.1838;;;;
2021/05/25 15:11:54;;;;;;;0.1;0.1;;;;;;;16.73;27.55176;939.1364;;;;
2021/05/25 15:14:19;;;;;;;0.7;0.1;;;;;;;16.9;30.5166;939.0936;;;;
2021/05/25 15:16:44;;;;;;;1;0.2;;;;;;;17;27.11621;938.9892;;;;
2021/05/25 15:19:09;;;;;;;0.5;0.3;;;;;;;17.09;26.95898;939.01;;;;
2021/05/25 15:21:34;;;;;;;4.2;0.5;;;;;;;16.96;27.04395;939.0372;;;;
2021/05/25 15:24:05;;;;;;;0.6;0.3;;;;;;;16.82;27.25586;939.1758;;;;
2021/05/25 15:26:31;;;;;;;0.4;0.2;;;;;;;16.91;29.52051;939.0798;;;;
2021/05/25 15:28:56;;;;;;;0.4;0.4;;;;;;;16.92;27.57422;939.2034;;;;
2021/05/25 15:31:23;;;;;;;2.8;0.4;;;;;;;16.95;29.58105;939.2947;;;;
2021/05/25 15:33:47;;;;;;;0.2;0.2;;;;;;;16.64;27.07129;939.2917;;;;
2021/05/25 15:36:17;;;;;;;0.3;0.3;;;;;;;16.45;28.77148;939.2414;;;;
2021/05/25 15:38:44;;;;;;;0.4;0.3;;;;;;;16.32;29.35352;939.1855;;;;
2021/05/25 15:41:08;;;;;;;0.2;0.1;;;;;;;16.63;30.0918;939.1744;;;;